sensor_id;sensor_type;location;lat;lon;timestamp;P1;durP1;ratioP1;P2;durP2;ratioP2
60354;SDS011;46198;51.464;-0.066;2023-12-07T00:00:43;14.07;;;6.37;;
60354;SDS011;46198;51.464;-0.066;2023-12-07T00:03:14;9.30;;;6.40;;
60354;SDS011;46198;51.464;-0.066;2023-12-07T00:05:44;9.93;;;6.10;;
60354;SDS011;46198;51.464;-0.066;2023-12-07T00:08:13;10.87;;;5.97;;
60354;SDS011;46198;51.464;-0.066;2023-12-07T00:10:42;13.83;;;7.77;;
60354;SDS011;46198;51.464;-0.066;2023-12-07T00:13:12;11.97;;;6.03;;
60354;SDS011;46198;51.464;-0.066;2023-12-07T00:15:42;16.07;;;6.70;;
60354;SDS011;46198;51.464;-0.066;2023-12-07T00:18:14;12.20;;;7.03;;
60354;SDS011;46198;51.464;-0.066;2023-12-07T00:20:43;12.10;;;6.03;;
60354;SDS011;46198;51.464;-0.066;2023-12-07T00:23:12;11.13;;;6.03;;
60354;SDS011;46198;51.464;-0.066;2023-12-07T00:25:42;11.80;;;6.13;;
60354;SDS011;46198;51.464;-0.066;2023-12-07T00:28:13;8.15;;;5.38;;
60354;SDS011;46198;51.464;-0.066;2023-12-07T00:30:42;12.90;;;5.90;;
60354;SDS011;46198;51.464;-0.066;2023-12-07T00:33:10;9.70;;;5.70;;
60354;SDS011;46198;51.464;-0.066;2023-12-07T00:35:41;10.67;;;5.40;;
60354;SDS011;46198;51.464;-0.066;2023-12-07T00:38:13;12.27;;;5.10;;
60354;SDS011;46198;51.464;-0.066;2023-12-07T00:40:44;9.43;;;5.30;;
60354;SDS011;46198;51.464;-0.066;2023-12-07T00:43:12;12.17;;;4.80;;
60354;SDS011;46198;51.464;-0.066;2023-12-07T00:45:42;9.43;;;4.70;;
60354;SDS011;46198;51.464;-0.066;2023-12-07T00:48:12;8.43;;;4.73;;
60354;SDS011;46198;51.464;-0.066;2023-12-07T00:50:43;11.33;;;5.17;;
60354;SDS011;46198;51.464;-0.066;2023-12-07T00:53:13;8.02;;;5.03;;
60354;SDS011;46198;51.464;-0.066;2023-12-07T00:55:44;8.40;;;4.40;;
60354;SDS011;46198;51.464;-0.066;2023-12-07T00:58:13;10.97;;;4.27;;
60354;SDS011;46198;51.464;-0.066;2023-12-07T01:00:42;11.77;;;4.70;;
60354;SDS011;46198;51.464;-0.066;2023-12-07T01:03:11;8.67;;;5.07;;
60354;SDS011;46198;51.464;-0.066;2023-12-07T01:05:40;9.13;;;4.90;;
60354;SDS011;46198;51.464;-0.066;2023-12-07T01:08:10;9.17;;;4.20;;
60354;SDS011;46198;51.464;-0.066;2023-12-07T01:10:40;8.02;;;3.72;;
60354;SDS011;46198;51.464;-0.066;2023-12-07T01:13:08;7.87;;;4.27;;
60354;SDS011;46198;51.464;-0.066;2023-12-07T01:15:37;9.53;;;3.80;;
60354;SDS011;46198;51.464;-0.066;2023-12-07T01:18:07;9.47;;;4.43;;
60354;SDS011;46198;51.464;-0.066;2023-12-07T01:20:36;8.87;;;4.60;;
60354;SDS011;46198;51.464;-0.066;2023-12-07T01:23:08;7.37;;;3.60;;
60354;SDS011;46198;51.464;-0.066;2023-12-07T01:25:42;10.47;;;4.10;;
60354;SDS011;46198;51.464;-0.066;2023-12-07T01:28:12;6.63;;;3.67;;
60354;SDS011;46198;51.464;-0.066;2023-12-07T01:30:41;7.23;;;4.17;;
60354;SDS011;46198;51.464;-0.066;2023-12-07T01:33:11;6.23;;;3.80;;
60354;SDS011;46198;51.464;-0.066;2023-12-07T01:35:41;7.53;;;4.00;;
60354;SDS011;46198;51.464;-0.066;2023-12-07T01:38:12;10.90;;;4.13;;
60354;SDS011;46198;51.464;-0.066;2023-12-07T01:40:40;9.95;;;4.32;;
60354;SDS011;46198;51.464;-0.066;2023-12-07T01:43:12;9.03;;;3.73;;
60354;SDS011;46198;51.464;-0.066;2023-12-07T01:45:41;7.80;;;4.50;;
60354;SDS011;46198;51.464;-0.066;2023-12-07T01:48:11;8.77;;;3.80;;
60354;SDS011;46198;51.464;-0.066;2023-12-07T01:50:41;9.20;;;4.13;;
60354;SDS011;46198;51.464;-0.066;2023-12-07T01:53:12;10.77;;;4.00;;
60354;SDS011;46198;51.464;-0.066;2023-12-07T01:55:41;6.18;;;3.55;;
60354;SDS011;46198;51.464;-0.066;2023-12-07T01:58:10;9.23;;;4.13;;
60354;SDS011;46198;51.464;-0.066;2023-12-07T02:00:39;8.53;;;3.93;;
60354;SDS011;46198;51.464;-0.066;2023-12-07T02:03:08;10.47;;;3.90;;
60354;SDS011;46198;51.464;-0.066;2023-12-07T02:05:38;8.53;;;3.93;;
60354;SDS011;46198;51.464;-0.066;2023-12-07T02:08:12;13.77;;;3.93;;
60354;SDS011;46198;51.464;-0.066;2023-12-07T02:10:41;8.82;;;3.95;;
60354;SDS011;46198;51.464;-0.066;2023-12-07T02:13:10;10.43;;;4.23;;
60354;SDS011;46198;51.464;-0.066;2023-12-07T02:15:40;19.20;;;5.77;;
60354;SDS011;46198;51.464;-0.066;2023-12-07T02:20:48;15.73;;;5.03;;
60354;SDS011;46198;51.464;-0.066;2023-12-07T02:23:25;11.07;;;3.80;;
60354;SDS011;46198;51.464;-0.066;2023-12-07T02:26:13;6.27;;;3.50;;
60354;SDS011;46198;51.464;-0.066;2023-12-07T02:28:50;7.00;;;3.83;;
60354;SDS011;46198;51.464;-0.066;2023-12-07T02:31:22;7.63;;;3.90;;
60354;SDS011;46198;51.464;-0.066;2023-12-07T02:33:51;7.87;;;4.00;;
60354;SDS011;46198;51.464;-0.066;2023-12-07T02:36:22;10.47;;;4.13;;
60354;SDS011;46198;51.464;-0.066;2023-12-07T02:38:53;11.93;;;4.93;;
60354;SDS011;46198;51.464;-0.066;2023-12-07T02:41:29;10.73;;;4.33;;
60354;SDS011;46198;51.464;-0.066;2023-12-07T02:44:02;5.73;;;3.37;;
60354;SDS011;46198;51.464;-0.066;2023-12-07T02:46:33;11.10;;;4.17;;
60354;SDS011;46198;51.464;-0.066;2023-12-07T02:49:04;8.60;;;4.85;;
60354;SDS011;46198;51.464;-0.066;2023-12-07T02:51:33;8.53;;;4.63;;
60354;SDS011;46198;51.464;-0.066;2023-12-07T02:54:03;6.90;;;3.60;;
60354;SDS011;46198;51.464;-0.066;2023-12-07T02:56:32;8.43;;;4.00;;
60354;SDS011;46198;51.464;-0.066;2023-12-07T02:59:06;5.13;;;4.18;;
60354;SDS011;46198;51.464;-0.066;2023-12-07T03:01:38;10.60;;;4.27;;
60354;SDS011;46198;51.464;-0.066;2023-12-07T03:04:08;8.27;;;4.30;;
60354;SDS011;46198;51.464;-0.066;2023-12-07T03:06:38;9.80;;;3.83;;
60354;SDS011;46198;51.464;-0.066;2023-12-07T03:09:11;6.30;;;4.00;;
60354;SDS011;46198;51.464;-0.066;2023-12-07T03:11:42;9.05;;;4.38;;
60354;SDS011;46198;51.464;-0.066;2023-12-07T03:14:38;11.57;;;4.00;;
60354;SDS011;46198;51.464;-0.066;2023-12-07T03:17:07;8.00;;;4.30;;
60354;SDS011;46198;51.464;-0.066;2023-12-07T03:19:37;8.40;;;4.03;;
60354;SDS011;46198;51.464;-0.066;2023-12-07T03:22:08;10.10;;;4.10;;
60354;SDS011;46198;51.464;-0.066;2023-12-07T03:24:37;9.47;;;4.20;;
60354;SDS011;46198;51.464;-0.066;2023-12-07T03:27:07;8.07;;;4.03;;
60354;SDS011;46198;51.464;-0.066;2023-12-07T03:29:36;7.27;;;3.80;;
60354;SDS011;46198;51.464;-0.066;2023-12-07T03:32:07;7.57;;;3.47;;
60354;SDS011;46198;51.464;-0.066;2023-12-07T03:34:37;9.47;;;3.77;;
60354;SDS011;46198;51.464;-0.066;2023-12-07T03:37:08;9.15;;;3.78;;
60354;SDS011;46198;51.464;-0.066;2023-12-07T03:39:38;7.97;;;3.77;;
60354;SDS011;46198;51.464;-0.066;2023-12-07T03:42:10;8.93;;;4.53;;
60354;SDS011;46198;51.464;-0.066;2023-12-07T03:44:59;11.57;;;3.70;;
60354;SDS011;46198;51.464;-0.066;2023-12-07T03:47:31;9.07;;;4.53;;
60354;SDS011;46198;51.464;-0.066;2023-12-07T03:50:00;10.57;;;4.38;;
60354;SDS011;46198;51.464;-0.066;2023-12-07T03:52:29;7.70;;;3.30;;
60354;SDS011;46198;51.464;-0.066;2023-12-07T03:54:58;7.23;;;3.37;;
60354;SDS011;46198;51.464;-0.066;2023-12-07T03:57:29;10.55;;;3.85;;
60354;SDS011;46198;51.464;-0.066;2023-12-07T03:59:58;11.43;;;4.50;;
60354;SDS011;46198;51.464;-0.066;2023-12-07T04:02:27;11.77;;;3.23;;
60354;SDS011;46198;51.464;-0.066;2023-12-07T04:05:01;10.03;;;3.73;;
60354;SDS011;46198;51.464;-0.066;2023-12-07T04:07:29;8.70;;;3.67;;
60354;SDS011;46198;51.464;-0.066;2023-12-07T04:09:59;11.50;;;3.87;;
60354;SDS011;46198;51.464;-0.066;2023-12-07T04:12:28;7.67;;;3.90;;
60354;SDS011;46198;51.464;-0.066;2023-12-07T04:14:58;11.10;;;3.90;;
60354;SDS011;46198;51.464;-0.066;2023-12-07T04:17:27;10.10;;;4.13;;
60354;SDS011;46198;51.464;-0.066;2023-12-07T04:19:56;8.70;;;3.67;;
60354;SDS011;46198;51.464;-0.066;2023-12-07T04:22:27;12.63;;;3.83;;
60354;SDS011;46198;51.464;-0.066;2023-12-07T04:24:56;13.63;;;3.88;;
60354;SDS011;46198;51.464;-0.066;2023-12-07T04:27:26;9.33;;;3.83;;
60354;SDS011;46198;51.464;-0.066;2023-12-07T04:29:55;5.27;;;4.00;;
60354;SDS011;46198;51.464;-0.066;2023-12-07T04:32:24;8.57;;;3.80;;
60354;SDS011;46198;51.464;-0.066;2023-12-07T04:34:53;7.70;;;3.90;;
60354;SDS011;46198;51.464;-0.066;2023-12-07T04:37:22;6.53;;;2.90;;
60354;SDS011;46198;51.464;-0.066;2023-12-07T04:39:52;13.67;;;4.20;;
60354;SDS011;46198;51.464;-0.066;2023-12-07T04:42:23;8.47;;;3.67;;
60354;SDS011;46198;51.464;-0.066;2023-12-07T04:44:52;15.07;;;3.70;;
60354;SDS011;46198;51.464;-0.066;2023-12-07T04:47:21;9.03;;;3.60;;
60354;SDS011;46198;51.464;-0.066;2023-12-07T04:49:50;9.60;;;4.17;;
60354;SDS011;46198;51.464;-0.066;2023-12-07T04:52:19;8.57;;;3.10;;
60354;SDS011;46198;51.464;-0.066;2023-12-07T04:54:50;8.75;;;3.30;;
60354;SDS011;46198;51.464;-0.066;2023-12-07T04:57:21;10.18;;;4.03;;
60354;SDS011;46198;51.464;-0.066;2023-12-07T04:59:51;8.00;;;3.70;;
60354;SDS011;46198;51.464;-0.066;2023-12-07T05:02:22;6.03;;;3.20;;
60354;SDS011;46198;51.464;-0.066;2023-12-07T05:04:53;10.23;;;3.30;;
60354;SDS011;46198;51.464;-0.066;2023-12-07T05:07:22;7.53;;;3.50;;
60354;SDS011;46198;51.464;-0.066;2023-12-07T05:09:53;9.37;;;4.23;;
60354;SDS011;46198;51.464;-0.066;2023-12-07T05:14:52;9.83;;;3.17;;
60354;SDS011;46198;51.464;-0.066;2023-12-07T05:17:21;5.37;;;3.53;;
60354;SDS011;46198;51.464;-0.066;2023-12-07T05:19:49;6.60;;;2.73;;
60354;SDS011;46198;51.464;-0.066;2023-12-07T05:22:19;4.63;;;3.30;;
60354;SDS011;46198;51.464;-0.066;2023-12-07T05:24:49;6.43;;;3.60;;
60354;SDS011;46198;51.464;-0.066;2023-12-07T05:27:19;8.23;;;3.40;;
60354;SDS011;46198;51.464;-0.066;2023-12-07T05:29:52;7.93;;;3.50;;
60354;SDS011;46198;51.464;-0.066;2023-12-07T05:32:21;8.37;;;3.53;;
60354;SDS011;46198;51.464;-0.066;2023-12-07T05:34:53;12.10;;;4.00;;
60354;SDS011;46198;51.464;-0.066;2023-12-07T05:37:23;4.90;;;3.67;;
60354;SDS011;46198;51.464;-0.066;2023-12-07T05:39:53;9.30;;;3.40;;
60354;SDS011;46198;51.464;-0.066;2023-12-07T05:42:25;11.35;;;3.67;;
60354;SDS011;46198;51.464;-0.066;2023-12-07T05:44:54;7.78;;;3.80;;
60354;SDS011;46198;51.464;-0.066;2023-12-07T05:47:23;7.27;;;3.83;;
60354;SDS011;46198;51.464;-0.066;2023-12-07T05:49:53;5.93;;;3.23;;
60354;SDS011;46198;51.464;-0.066;2023-12-07T05:52:27;8.50;;;4.43;;
60354;SDS011;46198;51.464;-0.066;2023-12-07T05:55:00;10.60;;;4.17;;
60354;SDS011;46198;51.464;-0.066;2023-12-07T05:57:31;7.77;;;3.83;;
60354;SDS011;46198;51.464;-0.066;2023-12-07T06:00:00;9.23;;;4.10;;
60354;SDS011;46198;51.464;-0.066;2023-12-07T06:02:37;9.03;;;4.67;;
60354;SDS011;46198;51.464;-0.066;2023-12-07T06:05:10;7.67;;;4.40;;
60354;SDS011;46198;51.464;-0.066;2023-12-07T06:07:49;9.17;;;5.20;;
60354;SDS011;46198;51.464;-0.066;2023-12-07T06:10:24;11.70;;;4.97;;
60354;SDS011;46198;51.464;-0.066;2023-12-07T06:12:55;8.07;;;4.37;;
60354;SDS011;46198;51.464;-0.066;2023-12-07T06:15:28;11.53;;;5.87;;
60354;SDS011;46198;51.464;-0.066;2023-12-07T06:17:57;12.57;;;5.40;;
60354;SDS011;46198;51.464;-0.066;2023-12-07T06:20:26;10.70;;;5.50;;
60354;SDS011;46198;51.464;-0.066;2023-12-07T06:22:55;13.33;;;5.57;;
60354;SDS011;46198;51.464;-0.066;2023-12-07T06:25:27;10.70;;;5.67;;
60354;SDS011;46198;51.464;-0.066;2023-12-07T06:27:57;10.30;;;5.27;;
60354;SDS011;46198;51.464;-0.066;2023-12-07T06:30:27;9.57;;;5.90;;
60354;SDS011;46198;51.464;-0.066;2023-12-07T06:32:56;10.47;;;5.57;;
60354;SDS011;46198;51.464;-0.066;2023-12-07T06:35:25;10.37;;;5.33;;
60354;SDS011;46198;51.464;-0.066;2023-12-07T06:37:54;10.83;;;6.23;;
60354;SDS011;46198;51.464;-0.066;2023-12-07T06:40:23;9.90;;;6.10;;
60354;SDS011;46198;51.464;-0.066;2023-12-07T06:42:58;13.47;;;7.33;;
60354;SDS011;46198;51.464;-0.066;2023-12-07T06:45:27;12.05;;;6.20;;
60354;SDS011;46198;51.464;-0.066;2023-12-07T06:47:56;8.97;;;6.20;;
60354;SDS011;46198;51.464;-0.066;2023-12-07T06:50:25;15.50;;;6.83;;
60354;SDS011;46198;51.464;-0.066;2023-12-07T06:52:59;10.40;;;6.03;;
60354;SDS011;46198;51.464;-0.066;2023-12-07T06:55:31;10.15;;;6.03;;
60354;SDS011;46198;51.464;-0.066;2023-12-07T06:58:13;11.63;;;6.53;;
60354;SDS011;46198;51.464;-0.066;2023-12-07T07:00:42;12.25;;;6.38;;
60354;SDS011;46198;51.464;-0.066;2023-12-07T07:03:11;13.27;;;7.10;;
60354;SDS011;46198;51.464;-0.066;2023-12-07T07:05:40;14.10;;;7.10;;
60354;SDS011;46198;51.464;-0.066;2023-12-07T07:08:18;14.63;;;6.77;;
60354;SDS011;46198;51.464;-0.066;2023-12-07T07:10:51;9.13;;;6.37;;
60354;SDS011;46198;51.464;-0.066;2023-12-07T07:13:21;10.30;;;7.13;;
60354;SDS011;46198;51.464;-0.066;2023-12-07T07:15:50;15.50;;;6.85;;
60354;SDS011;46198;51.464;-0.066;2023-12-07T07:18:19;14.20;;;6.73;;
60354;SDS011;46198;51.464;-0.066;2023-12-07T07:20:57;11.93;;;6.37;;
60354;SDS011;46198;51.464;-0.066;2023-12-07T07:23:26;15.73;;;6.90;;
60354;SDS011;46198;51.464;-0.066;2023-12-07T07:25:56;12.03;;;6.53;;
60354;SDS011;46198;51.464;-0.066;2023-12-07T07:28:26;13.33;;;6.83;;
60354;SDS011;46198;51.464;-0.066;2023-12-07T07:31:01;12.83;;;6.13;;
60354;SDS011;46198;51.464;-0.066;2023-12-07T07:37:32;13.20;;;6.93;;
60354;SDS011;46198;51.464;-0.066;2023-12-07T07:40:01;11.73;;;6.67;;
60354;SDS011;46198;51.464;-0.066;2023-12-07T07:42:33;14.47;;;7.83;;
60354;SDS011;46198;51.464;-0.066;2023-12-07T07:45:01;13.33;;;6.20;;
60354;SDS011;46198;51.464;-0.066;2023-12-07T07:47:29;15.27;;;6.00;;
60354;SDS011;46198;51.464;-0.066;2023-12-07T07:49:59;10.23;;;5.80;;
60354;SDS011;46198;51.464;-0.066;2023-12-07T07:52:33;10.37;;;4.67;;
60354;SDS011;46198;51.464;-0.066;2023-12-07T07:55:03;10.90;;;5.97;;
60354;SDS011;46198;51.464;-0.066;2023-12-07T07:57:32;10.30;;;6.30;;
60354;SDS011;46198;51.464;-0.066;2023-12-07T08:00:10;10.97;;;5.60;;
60354;SDS011;46198;51.464;-0.066;2023-12-07T08:02:40;16.63;;;6.35;;
60354;SDS011;46198;51.464;-0.066;2023-12-07T08:05:08;13.17;;;5.80;;
60354;SDS011;46198;51.464;-0.066;2023-12-07T08:07:39;11.57;;;5.20;;
60354;SDS011;46198;51.464;-0.066;2023-12-07T08:10:07;10.53;;;6.20;;
60354;SDS011;46198;51.464;-0.066;2023-12-07T08:12:36;16.13;;;7.43;;
60354;SDS011;46198;51.464;-0.066;2023-12-07T08:15:08;8.90;;;6.17;;
60354;SDS011;46198;51.464;-0.066;2023-12-07T08:17:38;13.00;;;6.20;;
60354;SDS011;46198;51.464;-0.066;2023-12-07T08:20:08;15.40;;;5.57;;
60354;SDS011;46198;51.464;-0.066;2023-12-07T08:22:39;12.87;;;5.43;;
60354;SDS011;46198;51.464;-0.066;2023-12-07T08:25:08;12.37;;;5.73;;
60354;SDS011;46198;51.464;-0.066;2023-12-07T08:27:38;13.03;;;5.27;;
60354;SDS011;46198;51.464;-0.066;2023-12-07T08:30:06;14.03;;;6.03;;
60354;SDS011;46198;51.464;-0.066;2023-12-07T08:32:36;12.70;;;6.20;;
60354;SDS011;46198;51.464;-0.066;2023-12-07T08:35:05;8.63;;;5.43;;
60354;SDS011;46198;51.464;-0.066;2023-12-07T08:37:37;11.40;;;5.40;;
60354;SDS011;46198;51.464;-0.066;2023-12-07T08:40:07;11.88;;;5.28;;
60354;SDS011;46198;51.464;-0.066;2023-12-07T08:42:38;13.17;;;5.80;;
60354;SDS011;46198;51.464;-0.066;2023-12-07T08:45:11;11.60;;;5.53;;
60354;SDS011;46198;51.464;-0.066;2023-12-07T08:47:40;10.67;;;5.37;;
60354;SDS011;46198;51.464;-0.066;2023-12-07T08:50:09;10.97;;;5.43;;
60354;SDS011;46198;51.464;-0.066;2023-12-07T08:52:38;9.40;;;4.90;;
60354;SDS011;46198;51.464;-0.066;2023-12-07T08:55:15;15.87;;;5.17;;
60354;SDS011;46198;51.464;-0.066;2023-12-07T08:57:45;11.87;;;5.23;;
60354;SDS011;46198;51.464;-0.066;2023-12-07T09:00:14;8.60;;;4.30;;
60354;SDS011;46198;51.464;-0.066;2023-12-07T09:02:43;10.67;;;4.43;;
60354;SDS011;46198;51.464;-0.066;2023-12-07T09:05:15;10.73;;;4.33;;
60354;SDS011;46198;51.464;-0.066;2023-12-07T09:07:45;14.23;;;4.90;;
60354;SDS011;46198;51.464;-0.066;2023-12-07T09:10:14;13.97;;;5.37;;
60354;SDS011;46198;51.464;-0.066;2023-12-07T09:12:42;8.73;;;4.97;;
60354;SDS011;46198;51.464;-0.066;2023-12-07T09:15:11;8.07;;;4.20;;
60354;SDS011;46198;51.464;-0.066;2023-12-07T09:17:39;9.83;;;4.30;;
60354;SDS011;46198;51.464;-0.066;2023-12-07T09:20:09;13.57;;;4.40;;
60354;SDS011;46198;51.464;-0.066;2023-12-07T09:22:41;9.30;;;4.00;;
60354;SDS011;46198;51.464;-0.066;2023-12-07T09:25:15;9.87;;;4.53;;
60354;SDS011;46198;51.464;-0.066;2023-12-07T09:27:44;12.07;;;3.95;;
60354;SDS011;46198;51.464;-0.066;2023-12-07T09:30:13;9.20;;;4.07;;
60354;SDS011;46198;51.464;-0.066;2023-12-07T09:32:41;6.87;;;3.73;;
60354;SDS011;46198;51.464;-0.066;2023-12-07T09:35:11;6.65;;;3.63;;
60354;SDS011;46198;51.464;-0.066;2023-12-07T09:37:43;6.50;;;3.67;;
60354;SDS011;46198;51.464;-0.066;2023-12-07T09:40:16;8.17;;;4.10;;
60354;SDS011;46198;51.464;-0.066;2023-12-07T09:42:47;7.40;;;4.27;;
60354;SDS011;46198;51.464;-0.066;2023-12-07T09:45:17;5.53;;;3.20;;
60354;SDS011;46198;51.464;-0.066;2023-12-07T09:47:47;9.23;;;3.65;;
60354;SDS011;46198;51.464;-0.066;2023-12-07T09:50:17;10.23;;;3.57;;
60354;SDS011;46198;51.464;-0.066;2023-12-07T09:55:31;4.47;;;2.87;;
60354;SDS011;46198;51.464;-0.066;2023-12-07T09:58:00;13.50;;;3.85;;
60354;SDS011;46198;51.464;-0.066;2023-12-07T10:00:32;4.70;;;3.07;;
60354;SDS011;46198;51.464;-0.066;2023-12-07T10:03:00;5.27;;;2.80;;
60354;SDS011;46198;51.464;-0.066;2023-12-07T10:05:29;6.27;;;3.10;;
60354;SDS011;46198;51.464;-0.066;2023-12-07T10:07:57;10.80;;;3.77;;
60354;SDS011;46198;51.464;-0.066;2023-12-07T10:10:25;6.43;;;3.40;;
60354;SDS011;46198;51.464;-0.066;2023-12-07T10:12:55;10.67;;;3.50;;
60354;SDS011;46198;51.464;-0.066;2023-12-07T10:15:26;6.60;;;2.97;;
60354;SDS011;46198;51.464;-0.066;2023-12-07T10:17:55;10.47;;;4.03;;
60354;SDS011;46198;51.464;-0.066;2023-12-07T10:20:26;13.98;;;3.33;;
60354;SDS011;46198;51.464;-0.066;2023-12-07T10:23:01;14.87;;;3.73;;
60354;SDS011;46198;51.464;-0.066;2023-12-07T10:25:30;7.30;;;2.73;;
60354;SDS011;46198;51.464;-0.066;2023-12-07T10:28:01;4.60;;;2.47;;
60354;SDS011;46198;51.464;-0.066;2023-12-07T10:30:33;6.07;;;2.37;;
60354;SDS011;46198;51.464;-0.066;2023-12-07T10:33:02;7.53;;;2.80;;
60354;SDS011;46198;51.464;-0.066;2023-12-07T10:35:31;5.07;;;2.73;;
60354;SDS011;46198;51.464;-0.066;2023-12-07T10:38:00;14.23;;;3.03;;
60354;SDS011;46198;51.464;-0.066;2023-12-07T10:40:29;7.73;;;3.00;;
60354;SDS011;46198;51.464;-0.066;2023-12-07T10:42:57;7.80;;;2.23;;
60354;SDS011;46198;51.464;-0.066;2023-12-07T10:45:29;6.87;;;2.50;;
60354;SDS011;46198;51.464;-0.066;2023-12-07T10:47:58;11.98;;;3.15;;
60354;SDS011;46198;51.464;-0.066;2023-12-07T10:50:34;6.50;;;2.80;;
60354;SDS011;46198;51.464;-0.066;2023-12-07T10:53:04;8.57;;;2.95;;
60354;SDS011;46198;51.464;-0.066;2023-12-07T10:55:38;6.10;;;2.73;;
60354;SDS011;46198;51.464;-0.066;2023-12-07T10:58:14;6.20;;;3.10;;
60354;SDS011;46198;51.464;-0.066;2023-12-07T11:00:45;11.35;;;3.05;;
60354;SDS011;46198;51.464;-0.066;2023-12-07T11:03:15;6.50;;;2.87;;
60354;SDS011;46198;51.464;-0.066;2023-12-07T11:05:46;4.18;;;2.92;;
60354;SDS011;46198;51.464;-0.066;2023-12-07T11:08:16;9.80;;;2.87;;
60354;SDS011;46198;51.464;-0.066;2023-12-07T11:10:55;9.90;;;2.67;;
60354;SDS011;46198;51.464;-0.066;2023-12-07T11:13:30;8.73;;;2.53;;
60354;SDS011;46198;51.464;-0.066;2023-12-07T11:16:03;5.83;;;3.27;;
60354;SDS011;46198;51.464;-0.066;2023-12-07T11:18:33;7.47;;;2.50;;
60354;SDS011;46198;51.464;-0.066;2023-12-07T11:21:01;5.47;;;3.70;;
60354;SDS011;46198;51.464;-0.066;2023-12-07T11:23:29;10.17;;;3.00;;
60354;SDS011;46198;51.464;-0.066;2023-12-07T11:25:58;8.63;;;2.70;;
60354;SDS011;46198;51.464;-0.066;2023-12-07T11:28:37;6.43;;;2.80;;
60354;SDS011;46198;51.464;-0.066;2023-12-07T11:31:08;3.90;;;2.50;;
60354;SDS011;46198;51.464;-0.066;2023-12-07T11:33:37;5.10;;;2.03;;
60354;SDS011;46198;51.464;-0.066;2023-12-07T11:36:07;4.83;;;2.33;;
60354;SDS011;46198;51.464;-0.066;2023-12-07T11:38:37;6.40;;;2.88;;
60354;SDS011;46198;51.464;-0.066;2023-12-07T11:41:05;9.07;;;3.20;;
60354;SDS011;46198;51.464;-0.066;2023-12-07T11:43:40;8.33;;;3.40;;
60354;SDS011;46198;51.464;-0.066;2023-12-07T11:46:14;5.37;;;3.10;;
60354;SDS011;46198;51.464;-0.066;2023-12-07T11:48:46;3.20;;;2.23;;
60354;SDS011;46198;51.464;-0.066;2023-12-07T11:51:16;8.50;;;2.93;;
60354;SDS011;46198;51.464;-0.066;2023-12-07T11:53:45;9.23;;;2.77;;
60354;SDS011;46198;51.464;-0.066;2023-12-07T11:56:15;6.78;;;2.72;;
60354;SDS011;46198;51.464;-0.066;2023-12-07T11:58:47;6.60;;;3.03;;
60354;SDS011;46198;51.464;-0.066;2023-12-07T12:01:17;6.23;;;2.93;;
60354;SDS011;46198;51.464;-0.066;2023-12-07T12:03:46;6.57;;;2.80;;
60354;SDS011;46198;51.464;-0.066;2023-12-07T12:06:15;7.63;;;3.10;;
60354;SDS011;46198;51.464;-0.066;2023-12-07T12:08:44;4.40;;;2.73;;
60354;SDS011;46198;51.464;-0.066;2023-12-07T12:11:13;5.23;;;2.57;;
60354;SDS011;46198;51.464;-0.066;2023-12-07T12:13:44;5.32;;;3.75;;
60354;SDS011;46198;51.464;-0.066;2023-12-07T12:16:14;7.97;;;3.47;;
60354;SDS011;46198;51.464;-0.066;2023-12-07T12:18:44;5.80;;;2.97;;
60354;SDS011;46198;51.464;-0.066;2023-12-07T12:21:33;6.53;;;2.55;;
60354;SDS011;46198;51.464;-0.066;2023-12-07T12:24:08;7.77;;;2.63;;
60354;SDS011;46198;51.464;-0.066;2023-12-07T12:26:37;6.63;;;2.37;;
60354;SDS011;46198;51.464;-0.066;2023-12-07T12:29:07;6.43;;;2.70;;
60354;SDS011;46198;51.464;-0.066;2023-12-07T12:34:20;6.17;;;2.50;;
60354;SDS011;46198;51.464;-0.066;2023-12-07T12:36:49;6.23;;;2.70;;
60354;SDS011;46198;51.464;-0.066;2023-12-07T12:39:18;13.90;;;2.53;;
60354;SDS011;46198;51.464;-0.066;2023-12-07T12:41:57;6.83;;;2.10;;
60354;SDS011;46198;51.464;-0.066;2023-12-07T12:44:27;12.97;;;2.80;;
60354;SDS011;46198;51.464;-0.066;2023-12-07T12:47:04;7.10;;;2.80;;
60354;SDS011;46198;51.464;-0.066;2023-12-07T12:49:38;5.93;;;2.50;;
60354;SDS011;46198;51.464;-0.066;2023-12-07T12:52:09;5.23;;;2.60;;
60354;SDS011;46198;51.464;-0.066;2023-12-07T12:54:42;8.70;;;2.60;;
60354;SDS011;46198;51.464;-0.066;2023-12-07T12:57:10;7.80;;;2.97;;
60354;SDS011;46198;51.464;-0.066;2023-12-07T12:59:38;6.40;;;2.63;;
60354;SDS011;46198;51.464;-0.066;2023-12-07T13:02:09;8.40;;;2.50;;
60354;SDS011;46198;51.464;-0.066;2023-12-07T13:05:47;6.47;;;2.72;;
60354;SDS011;46198;51.464;-0.066;2023-12-07T13:08:26;7.40;;;2.97;;
60354;SDS011;46198;51.464;-0.066;2023-12-07T13:10:54;6.37;;;3.63;;
60354;SDS011;46198;51.464;-0.066;2023-12-07T13:13:22;5.70;;;2.90;;
60354;SDS011;46198;51.464;-0.066;2023-12-07T13:15:50;7.33;;;3.00;;
60354;SDS011;46198;51.464;-0.066;2023-12-07T13:18:19;6.43;;;2.93;;
60354;SDS011;46198;51.464;-0.066;2023-12-07T13:20:51;5.70;;;2.97;;
60354;SDS011;46198;51.464;-0.066;2023-12-07T13:23:24;6.50;;;3.03;;
60354;SDS011;46198;51.464;-0.066;2023-12-07T13:25:52;6.40;;;3.30;;
60354;SDS011;46198;51.464;-0.066;2023-12-07T13:28:23;5.73;;;3.30;;
60354;SDS011;46198;51.464;-0.066;2023-12-07T13:30:52;6.80;;;3.40;;
60354;SDS011;46198;51.464;-0.066;2023-12-07T13:33:23;7.97;;;3.15;;
60354;SDS011;46198;51.464;-0.066;2023-12-07T13:35:57;8.07;;;3.23;;
60354;SDS011;46198;51.464;-0.066;2023-12-07T13:38:32;6.87;;;3.70;;
60354;SDS011;46198;51.464;-0.066;2023-12-07T13:41:02;7.37;;;3.37;;
60354;SDS011;46198;51.464;-0.066;2023-12-07T13:45:23;8.07;;;3.73;;
60354;SDS011;46198;51.464;-0.066;2023-12-07T13:46:59;8.13;;;3.20;;
60354;SDS011;46198;51.464;-0.066;2023-12-07T13:49:27;7.93;;;3.13;;
60354;SDS011;46198;51.464;-0.066;2023-12-07T13:52:03;7.17;;;3.67;;
60354;SDS011;46198;51.464;-0.066;2023-12-07T13:54:35;4.63;;;3.20;;
60354;SDS011;46198;51.464;-0.066;2023-12-07T13:57:06;7.33;;;3.27;;
60354;SDS011;46198;51.464;-0.066;2023-12-07T13:59:38;3.73;;;2.13;;
60354;SDS011;46198;51.464;-0.066;2023-12-07T14:02:06;5.23;;;2.13;;
60354;SDS011;46198;51.464;-0.066;2023-12-07T14:04:37;6.80;;;3.30;;
60354;SDS011;46198;51.464;-0.066;2023-12-07T14:07:08;6.43;;;3.27;;
60354;SDS011;46198;51.464;-0.066;2023-12-07T14:09:39;8.37;;;3.10;;
60354;SDS011;46198;51.464;-0.066;2023-12-07T14:12:22;7.37;;;3.00;;
60354;SDS011;46198;51.464;-0.066;2023-12-07T14:14:51;2.77;;;2.07;;
60354;SDS011;46198;51.464;-0.066;2023-12-07T14:17:19;5.60;;;2.70;;
60354;SDS011;46198;51.464;-0.066;2023-12-07T14:20:00;5.77;;;2.70;;
60354;SDS011;46198;51.464;-0.066;2023-12-07T14:22:51;4.73;;;2.60;;
60354;SDS011;46198;51.464;-0.066;2023-12-07T14:25:19;6.87;;;3.27;;
60354;SDS011;46198;51.464;-0.066;2023-12-07T14:27:47;6.97;;;3.27;;
60354;SDS011;46198;51.464;-0.066;2023-12-07T14:30:16;6.20;;;1.90;;
60354;SDS011;46198;51.464;-0.066;2023-12-07T14:32:44;5.97;;;3.10;;
60354;SDS011;46198;51.464;-0.066;2023-12-07T14:35:19;7.13;;;3.03;;
60354;SDS011;46198;51.464;-0.066;2023-12-07T14:37:48;10.40;;;3.00;;
60354;SDS011;46198;51.464;-0.066;2023-12-07T14:40:19;5.13;;;3.17;;
60354;SDS011;46198;51.464;-0.066;2023-12-07T14:42:48;5.70;;;3.00;;
60354;SDS011;46198;51.464;-0.066;2023-12-07T14:45:16;9.50;;;3.60;;
60354;SDS011;46198;51.464;-0.066;2023-12-07T14:50:15;8.70;;;3.37;;
60354;SDS011;46198;51.464;-0.066;2023-12-07T14:52:43;8.77;;;2.80;;
60354;SDS011;46198;51.464;-0.066;2023-12-07T14:55:12;7.23;;;3.10;;
60354;SDS011;46198;51.464;-0.066;2023-12-07T14:57:41;4.57;;;2.93;;
60354;SDS011;46198;51.464;-0.066;2023-12-07T15:00:10;3.70;;;2.67;;
60354;SDS011;46198;51.464;-0.066;2023-12-07T15:02:39;7.63;;;2.87;;
60354;SDS011;46198;51.464;-0.066;2023-12-07T15:05:08;8.40;;;3.03;;
60354;SDS011;46198;51.464;-0.066;2023-12-07T15:07:36;8.77;;;3.00;;
60354;SDS011;46198;51.464;-0.066;2023-12-07T15:10:06;10.93;;;3.50;;